Time;durP1;ratioP1;P1;durP2;ratioP2;P2;SDS_P1;SDS_P2;PMS_P1;PMS_P2;Temp;Humidity;BMP_temperature;BMP_pressure;BME280_temperature;BME280_humidity;BME280_pressure;Samples;Min_cycle;Max_cycle;Signal;HPM_P1;HPM_P2
2022/07/22 00:01:40;;;;;;;1999.90;999.90;;;;;;;22.79;60.25;95769.06;5034238;28;20059;-68
2022/07/22 00:04:05;;;;;;;1999.90;999.90;;;;;;;22.89;60.20;95786.69;5034603;28;20100;-68
2022/07/22 00:06:31;;;;;;;1999.90;999.90;;;;;;;22.83;60.23;95785.41;5051976;28;20053;-69
2022/07/22 00:08:56;;;;;;;1999.90;999.90;;;;;;;22.84;59.94;95785.03;5051613;28;20044;-68
2022/07/22 00:11:22;;;;;;;1999.90;999.90;;;;;;;22.73;60.12;95761.63;5039464;28;20021;-69
2022/07/22 00:13:48;;;;;;;1999.90;999.90;;;;;;;22.69;60.18;95756.16;5054272;28;20024;-68
2022/07/22 00:16:13;;;;;;;1999.90;999.90;;;;;;;22.75;60.25;95764.75;5060980;28;20565;-68
2022/07/22 00:18:39;;;;;;;1999.90;999.90;;;;;;;22.81;60.19;95777.63;5034545;28;20033;-67
2022/07/22 00:21:04;;;;;;;1999.90;999.90;;;;;;;22.66;60.10;95747.97;5051278;28;20021;-67
2022/07/22 00:23:29;;;;;;;1999.90;999.90;;;;;;;22.70;59.84;95748.78;5034150;28;20378;-68
2022/07/22 00:25:55;;;;;;;1999.90;999.90;;;;;;;22.78;59.60;95761.31;5034529;28;20033;-68
2022/07/22 00:28:20;;;;;;;1999.90;999.90;;;;;;;22.70;59.35;95744.16;5036315;28;20094;-67
2022/07/22 00:30:45;;;;;;;1999.90;999.90;;;;;;;22.72;59.26;95747.25;5051299;28;20036;-68
2022/07/22 00:33:11;;;;;;;1999.90;999.90;;;;;;;22.66;59.21;95726.25;5051922;28;20035;-68
2022/07/22 00:35:36;;;;;;;1999.90;999.90;;;;;;;22.62;59.40;95728.91;5033720;28;20032;-69
2022/07/22 00:38:01;;;;;;;1999.90;999.90;;;;;;;22.72;59.41;95752.69;5051875;28;20082;-69
2022/07/22 00:40:27;;;;;;;1999.90;999.90;;;;;;;22.60;59.13;95727.75;5055953;28;20538;-69
2022/07/22 00:42:52;;;;;;;1999.90;999.90;;;;;;;22.52;59.36;95726.84;5071790;28;20024;-70
2022/07/22 00:45:18;;;;;;;1999.90;999.90;;;;;;;22.61;59.11;95745.56;5059699;28;20115;-68
2022/07/22 00:47:43;;;;;;;1999.90;999.90;;;;;;;22.53;59.29;95723.00;5050720;28;20552;-68
2022/07/22 00:50:09;;;;;;;1999.90;999.90;;;;;;;22.69;59.09;95753.44;5068840;28;20028;-69
2022/07/22 00:52:35;;;;;;;1999.90;999.90;;;;;;;22.47;59.20;95732.59;5059227;28;20029;-68
2022/07/22 00:55:01;;;;;;;1999.90;999.90;;;;;;;22.50;59.31;95742.69;5050667;28;20039;-68
2022/07/22 00:57:27;;;;;;;1999.90;999.90;;;;;;;22.56;59.22;95755.56;5054907;28;20428;-68
2022/07/22 00:59:53;;;;;;;1999.90;999.90;;;;;;;22.55;59.35;95748.59;5033688;28;20060;-69
2022/07/22 01:02:18;;;;;;;1999.90;999.90;;;;;;;22.40;59.29;95727.84;5032097;28;20036;-68
2022/07/22 01:04:44;;;;;;;1999.90;999.90;;;;;;;22.45;59.38;95735.66;5051749;28;20075;-68
2022/07/22 01:07:09;;;;;;;1999.90;999.90;;;;;;;22.19;59.36;95695.81;5050891;28;20422;-67
2022/07/22 01:09:34;;;;;;;1999.90;999.90;;;;;;;22.52;59.49;95745.81;5040447;28;20024;-68
2022/07/22 01:12:00;;;;;;;1999.90;999.90;;;;;;;22.37;59.39;95716.94;5053702;28;20024;-69
2022/07/22 01:14:26;;;;;;;1999.90;999.90;;;;;;;22.52;59.67;95748.53;5045749;28;20030;-68
2022/07/22 01:16:51;;;;;;;1999.90;999.90;;;;;;;22.48;58.99;95745.78;5038007;28;20081;-69
2022/07/22 01:19:16;;;;;;;1999.90;999.90;;;;;;;22.19;59.61;95703.16;5031583;28;20029;-68
2022/07/22 01:21:42;;;;;;;1999.90;999.90;;;;;;;22.10;59.32;95689.81;5051012;28;20116;-68
2022/07/22 01:24:07;;;;;;;1999.90;999.90;;;;;;;22.29;59.67;95718.78;5051166;28;20049;-67
2022/07/22 01:26:35;;;;;;;1999.90;999.90;;;;;;;22.34;59.54;95723.13;5057514;28;20048;-69
2022/07/22 01:29:01;;;;;;;1999.90;999.90;;;;;;;22.33;59.19;95726.97;5032651;28;20025;-70
2022/07/22 01:31:27;;;;;;;1999.90;999.90;;;;;;;22.28;59.34;95718.00;5050733;28;20059;-69
2022/07/22 01:33:53;;;;;;;1999.90;999.90;;;;;;;22.19;59.76;95706.63;5050387;28;20560;-69
2022/07/22 01:36:18;;;;;;;1999.90;999.90;;;;;;;22.33;59.62;95729.69;5050152;28;20115;-69
2022/07/22 01:38:44;;;;;;;1999.90;999.90;;;;;;;22.35;59.57;95724.66;5037660;28;20059;-69
2022/07/22 01:41:10;;;;;;;1999.90;999.90;;;;;;;22.38;59.38;95732.09;5052792;28;20028;-69
2022/07/22 01:43:35;;;;;;;1999.90;999.90;;;;;;;22.28;59.33;95715.28;5046623;28;20021;-69
2022/07/22 01:46:00;;;;;;;1999.90;999.90;;;;;;;22.33;59.08;95724.25;5032339;28;20032;-68
2022/07/22 01:48:26;;;;;;;1999.90;999.90;;;;;;;22.37;59.11;95730.50;5050371;28;20033;-70
2022/07/22 01:50:52;;;;;;;1999.90;999.90;;;;;;;22.17;59.14;95714.38;5032244;28;20033;-69
2022/07/22 01:53:17;;;;;;;1999.90;999.90;;;;;;;22.25;59.59;95734.97;5048357;28;20473;-69
2022/07/22 01:55:42;;;;;;;1999.90;999.90;;;;;;;22.09;59.41;95720.78;5050080;28;20025;-69
2022/07/22 01:58:08;;;;;;;1999.90;999.90;;;;;;;21.94;59.77;95710.88;5031975;28;20025;-68
2022/07/22 02:00:34;;;;;;;1999.90;999.90;;;;;;;21.88;60.29;95720.44;5050299;28;20025;-69
2022/07/22 02:03:00;;;;;;;1999.90;999.90;;;;;;;21.89;60.23;95725.50;5044953;28;20031;-68
2022/07/22 02:05:25;;;;;;;1999.90;999.90;;;;;;;21.97;60.16;95734.53;5036996;28;20028;-68
2022/07/22 02:07:50;;;;;;;1999.90;999.90;;;;;;;21.83;60.40;95726.16;5044063;28;20021;-69
2022/07/22 02:10:16;;;;;;;1999.90;999.90;;;;;;;21.61;60.77;95706.06;5031673;28;20048;-68
2022/07/22 02:12:42;;;;;;;1999.90;999.90;;;;;;;21.76;60.78;95740.38;5030332;28;20630;-69
2022/07/22 02:15:08;;;;;;;1999.90;999.90;;;;;;;21.26;61.38;95702.34;5047570;28;20106;-68
2022/07/22 02:17:34;;;;;;;1999.90;999.90;;;;;;;21.72;61.25;95739.53;5050154;28;20037;-69
2022/07/22 02:20:00;;;;;;;1999.90;999.90;;;;;;;21.40;61.37;95712.69;5032160;28;20033;-69
2022/07/22 02:22:25;;;;;;;1999.90;999.90;;;;;;;21.05;62.10;95695.75;5032276;28;20035;-69
2022/07/22 02:24:50;;;;;;;1999.90;999.90;;;;;;;20.66;63.77;95688.41;5052533;28;20037;-69
2022/07/22 02:27:16;;;;;;;1999.90;999.90;;;;;;;20.91;63.31;95705.13;5048991;28;20068;-69
2022/07/22 02:29:41;;;;;;;1999.90;999.90;;;;;;;21.36;62.09;95728.06;5032725;28;20104;-68
2022/07/22 02:32:07;;;;;;;1999.90;999.90;;;;;;;21.20;63.26;95733.53;5031428;28;20114;-68
2022/07/22 02:34:32;;;;;;;1999.90;999.90;;;;;;;20.98;64.13;95735.03;5032381;28;20025;-69
2022/07/22 02:36:57;;;;;;;1999.90;999.90;;;;;;;20.98;63.51;95718.78;5035118;28;20025;-69
2022/07/22 02:39:23;;;;;;;1999.90;999.90;;;;;;;21.15;63.36;95727.63;5032443;28;20029;-69
2022/07/22 02:41:48;;;;;;;1999.90;999.90;;;;;;;20.87;64.59;95728.63;5049462;28;20035;-68
2022/07/22 02:44:14;;;;;;;1999.90;999.90;;;;;;;21.13;64.00;95732.59;5049810;28;20035;-68
2022/07/22 02:46:39;;;;;;;1999.90;999.90;;;;;;;21.31;63.36;95724.88;5031410;28;20037;-69
2022/07/22 02:49:05;;;;;;;1999.90;999.90;;;;;;;21.46;62.64;95732.09;5050149;28;20774;-68
2022/07/22 02:51:30;;;;;;;1999.90;999.90;;;;;;;21.48;62.61;95741.41;5031446;28;20076;-68
2022/07/22 02:53:57;;;;;;;1999.90;999.90;;;;;;;21.45;62.43;95731.31;5056480;28;20021;-68
2022/07/22 02:56:22;;;;;;;1999.90;999.90;;;;;;;21.39;62.57;95726.53;5058347;28;20501;-68
2022/07/22 02:58:51;;;;;;;1999.90;999.90;;;;;;;21.44;62.62;95737.06;5048036;28;20040;-69
2022/07/22 03:01:17;;;;;;;1999.90;999.90;;;;;;;21.36;62.98;95721.88;5030882;28;20036;-67
2022/07/22 03:03:42;;;;;;;1999.90;999.90;;;;;;;21.38;62.77;95714.16;5046480;28;20028;-67
2022/07/22 03:06:08;;;;;;;1999.90;999.90;;;;;;;21.35;62.67;95715.69;5060475;28;20029;-68
2022/07/22 03:08:33;;;;;;;1999.90;999.90;;;;;;;21.27;62.81;95700.41;5053347;28;20513;-68
2022/07/22 03:10:58;;;;;;;1999.90;999.90;;;;;;;21.38;62.69;95712.25;5032114;28;20060;-68
2022/07/22 03:13:24;;;;;;;1999.90;999.90;;;;;;;21.54;63.08;95731.06;5030832;28;20021;-68
2022/07/22 03:15:49;;;;;;;1999.90;999.90;;;;;;;21.48;63.15;95713.56;5046642;28;20051;-68
2022/07/22 03:18:14;;;;;;;1999.90;999.90;;;;;;;21.57;63.11;95733.06;5052680;28;20029;-68
2022/07/22 03:20:41;;;;;;;1999.90;999.90;;;;;;;21.45;63.42;95725.13;5030695;28;20068;-68
2022/07/22 03:23:06;;;;;;;1999.90;999.90;;;;;;;21.56;63.32;95731.50;5052528;28;20044;-69
2022/07/22 03:25:32;;;;;;;1999.90;999.90;;;;;;;21.44;63.42;95704.59;5032756;28;20033;-70
2022/07/22 03:27:57;;;;;;;1999.90;999.90;;;;;;;21.43;63.23;95703.03;5049024;28;20056;-68
2022/07/22 03:30:23;;;;;;;1999.90;999.90;;;;;;;21.42;63.34;95698.78;5031077;28;20045;-68
2022/07/22 03:32:48;;;;;;;1999.90;999.90;;;;;;;21.50;63.31;95716.72;5058825;28;20055;-70
2022/07/22 03:35:14;;;;;;;1999.90;999.90;;;;;;;21.57;63.16;95730.38;5067965;28;20081;-68
2022/07/22 03:37:40;;;;;;;1999.90;999.90;;;;;;;21.41;63.16;95718.88;5026618;28;20040;-70
2022/07/22 03:40:06;;;;;;;1999.90;999.90;;;;;;;21.48;63.36;95737.94;5049490;28;20029;-70
2022/07/22 03:42:31;;;;;;;1999.90;999.90;;;;;;;21.42;63.49;95726.63;5048827;28;20531;-69
2022/07/22 03:44:56;;;;;;;1999.90;999.90;;;;;;;21.43;63.39;95727.41;5031491;28;20027;-69
2022/07/22 03:47:22;;;;;;;1999.90;999.90;;;;;;;21.37;63.30;95718.78;5047279;28;20033;-71
2022/07/22 03:49:49;;;;;;;1999.90;999.90;;;;;;;21.48;63.30;95740.63;5064427;28;20074;-70
2022/07/22 03:52:15;;;;;;;1999.90;999.90;;;;;;;21.57;63.16;95749.31;5054163;28;20025;-72
2022/07/22 03:54:41;;;;;;;1999.90;999.90;;;;;;;21.50;62.68;95724.84;5050957;28;20043;-70
2022/07/22 03:57:07;;;;;;;1999.90;999.90;;;;;;;21.45;62.84;95717.00;5035064;28;20638;-70
2022/07/22 03:59:32;;;;;;;1999.90;999.90;;;;;;;21.64;62.60;95724.28;5049596;28;20036;-70
2022/07/22 04:01:58;;;;;;;1999.90;999.90;;;;;;;21.67;62.09;95721.66;5048505;28;20048;-69
2022/07/22 04:04:24;;;;;;;1999.90;999.90;;;;;;;21.82;62.23;95735.44;5050643;28;20028;-69
2022/07/22 04:06:51;;;;;;;1999.90;999.90;;;;;;;21.83;62.10;95739.69;5037853;28;20036;-70
2022/07/22 04:09:17;;;;;;;1999.90;999.90;;;;;;;21.86;62.06;95737.06;5034292;28;20543;-70
2022/07/22 04:11:42;;;;;;;1999.90;999.90;;;;;;;21.76;61.94;95716.78;5030827;28;20036;-69
2022/07/22 04:14:07;;;;;;;1999.90;999.90;;;;;;;21.95;61.48;95721.31;5026987;28;20120;-69
2022/07/22 04:16:34;;;;;;;1999.90;999.90;;;;;;;22.11;60.93;95725.84;5040864;28;20029;-69
2022/07/22 04:19:00;;;;;;;1999.90;999.90;;;;;;;22.15;60.88;95703.09;5048429;28;20029;-69
2022/07/22 04:21:25;;;;;;;1999.90;999.90;;;;;;;22.40;60.26;95717.00;5031107;28;20820;-69
2022/07/22 04:23:51;;;;;;;1999.90;999.90;;;;;;;21.56;59.92;95560.22;5054152;28;20028;-70
2022/07/22 04:26:16;;;;;;;1999.90;999.90;;;;;;;22.91;59.06;95732.81;5029963;28;20033;-69
2022/07/22 04:28:41;;;;;;;1999.90;999.90;;;;;;;22.91;58.80;95702.22;5030499;28;20053;-70
2022/07/22 04:31:06;;;;;;;1999.90;999.90;;;;;;;23.14;58.12;95721.88;5030433;28;20056;-69
2022/07/22 04:33:32;;;;;;;1999.90;999.90;;;;;;;23.32;58.04;95725.53;5048282;28;20379;-69
2022/07/22 04:35:57;;;;;;;1999.90;999.90;;;;;;;23.48;57.05;95727.25;5050879;28;20039;-68
2022/07/22 04:38:23;;;;;;;1999.90;999.90;;;;;;;23.53;57.16;95713.34;5053952;28;20513;-69
2022/07/22 04:40:49;;;;;;;1999.90;999.90;;;;;;;23.74;56.79;95726.38;5052234;28;20025;-68
2022/07/22 04:43:14;;;;;;;1999.90;999.90;;;;;;;23.81;56.35;95715.59;5061326;28;20023;-70
2022/07/22 04:45:39;;;;;;;1999.90;999.90;;;;;;;23.98;56.04;95719.59;5066748;28;20017;-69
2022/07/22 04:48:05;;;;;;;1999.90;999.90;;;;;;;24.05;55.92;95711.50;5034506;28;20052;-70
2022/07/22 04:50:30;;;;;;;1999.90;999.90;;;;;;;24.31;55.59;95724.09;5051575;28;20051;-68
2022/07/22 04:52:55;;;;;;;1999.90;999.90;;;;;;;24.47;55.06;95727.38;5057151;28;20025;-68
2022/07/22 04:55:21;;;;;;;1999.90;999.90;;;;;;;24.68;54.82;95728.66;5051266;28;20033;-68
2022/07/22 04:57:46;;;;;;;1999.90;999.90;;;;;;;24.86;53.99;95738.44;5051312;28;20029;-67
2022/07/22 05:00:12;;;;;;;1999.90;999.90;;;;;;;24.81;53.95;95714.31;5032221;28;20111;-64
2022/07/22 05:02:37;;;;;;;1999.90;999.90;;;;;;;24.92;53.60;95711.66;5048815;28;20086;-66
2022/07/22 05:05:03;;;;;;;1999.90;999.90;;;;;;;25.19;53.51;95716.84;5049626;28;20033;-67
2022/07/22 05:07:28;;;;;;;1999.90;999.90;;;;;;;25.42;52.59;95720.78;5069863;28;20037;-67
2022/07/22 05:09:54;;;;;;;1999.90;999.90;;;;;;;25.49;52.59;95717.31;5048665;28;20029;-67
2022/07/22 05:12:19;;;;;;;1999.90;999.90;;;;;;;25.49;52.13;95686.56;5050221;28;20036;-66
2022/07/22 05:14:44;;;;;;;1999.90;999.90;;;;;;;25.70;52.06;95711.13;5062850;28;20116;-66
2022/07/22 05:17:11;;;;;;;1999.90;999.90;;;;;;;25.78;51.56;95707.25;5052693;28;20435;-66
2022/07/22 05:19:40;;;;;;;1999.90;999.90;;;;;;;25.96;51.71;95722.84;5052320;28;20078;-66
2022/07/22 05:22:07;;;;;;;1999.90;999.90;;;;;;;26.08;51.28;95723.22;5049604;28;20632;-66
2022/07/22 05:24:32;;;;;;;1999.90;999.90;;;;;;;26.11;51.27;95705.31;5059369;28;20126;-66
2022/07/22 05:26:57;;;;;;;1999.90;999.90;;;;;;;26.36;50.68;95724.38;5049113;28;20231;-66
2022/07/22 05:29:23;;;;;;;1999.90;999.90;;;;;;;26.44;50.57;95712.31;5050438;28;20036;-67
2022/07/22 05:31:48;;;;;;;1999.90;999.90;;;;;;;26.41;50.75;95704.88;5070475;28;20021;-67
2022/07/22 05:34:14;;;;;;;1999.90;999.90;;;;;;;26.51;50.25;95704.09;5069922;28;20470;-67
2022/07/22 05:36:40;;;;;;;1999.90;999.90;;;;;;;26.58;49.49;95708.78;5067010;28;20029;-66
2022/07/22 05:39:05;;;;;;;1999.90;999.90;;;;;;;26.66;48.69;95699.41;5064299;28;20036;-67
2022/07/22 05:41:30;;;;;;;1999.90;999.90;;;;;;;26.65;48.74;95701.34;5049016;28;20021;-67
2022/07/22 05:43:56;;;;;;;1999.90;999.90;;;;;;;26.06;49.77;95686.63;5049294;28;20512;-67
2022/07/22 05:46:21;;;;;;;1999.90;999.90;;;;;;;26.48;49.81;95704.13;5068879;28;20086;-67
2022/07/22 05:48:46;;;;;;;1999.90;999.90;;;;;;;26.66;49.37;95704.84;5070179;28;20063;-66
2022/07/22 05:51:13;;;;;;;1999.90;999.90;;;;;;;26.73;48.77;95698.63;5067168;28;20384;-66
2022/07/22 05:53:39;;;;;;;1999.90;999.90;;;;;;;26.78;48.60;95707.16;5063745;28;20083;-66
2022/07/22 05:56:05;;;;;;;1999.90;999.90;;;;;;;26.85;48.59;95709.09;5059786;28;20111;-66
2022/07/22 05:58:30;;;;;;;1999.90;999.90;;;;;;;26.79;48.87;95708.72;5032045;28;1082827;-66
2022/07/22 06:00:55;;;;;;;1999.90;999.90;;;;;;;26.75;48.81;95699.00;5052838;28;20021;-66
2022/07/22 06:03:21;;;;;;;1999.90;999.90;;;;;;;26.87;48.69;95706.72;5052520;28;20056;-66
2022/07/22 06:05:46;;;;;;;1999.90;999.90;;;;;;;26.79;48.21;95692.34;5042814;28;20540;-66
2022/07/22 06:08:12;;;;;;;1999.90;999.90;;;;;;;26.84;48.49;95691.94;5052717;28;20032;-66
2022/07/22 06:10:37;;;;;;;1999.90;999.90;;;;;;;26.89;48.51;95696.22;5053361;28;20052;-66
2022/07/22 06:13:03;;;;;;;1999.90;999.90;;;;;;;26.86;47.88;95697.75;5050297;28;20250;-66
2022/07/22 06:15:28;;;;;;;1999.90;999.90;;;;;;;26.72;47.77;95707.94;5064234;28;20036;-66
2022/07/22 06:17:53;;;;;;;1999.90;999.90;;;;;;;26.72;48.61;95699.75;5070673;28;20028;-66
2022/07/22 06:20:19;;;;;;;1999.90;999.90;;;;;;;26.75;48.67;95723.56;5052420;28;20017;-66
2022/07/22 06:22:44;;;;;;;1999.90;999.90;;;;;;;26.87;47.90;95710.25;5065930;28;20024;-66
2022/07/22 06:25:09;;;;;;;1999.90;999.90;;;;;;;26.88;47.66;95706.34;5058534;28;20075;-66
2022/07/22 06:27:35;;;;;;;1999.90;999.90;;;;;;;27.01;47.52;95701.22;5050122;28;20032;-67
2022/07/22 06:30:01;;;;;;;1999.90;999.90;;;;;;;27.17;46.88;95709.75;5068420;28;20103;-66
2022/07/22 06:32:26;;;;;;;1999.90;999.90;;;;;;;27.36;46.23;95700.31;5069556;28;20025;-66
2022/07/22 06:34:51;;;;;;;1999.90;999.90;;;;;;;27.47;45.69;95698.28;5070117;28;20509;-67
2022/07/22 06:37:17;;;;;;;1999.90;999.90;;;;;;;27.47;45.86;95690.09;5066953;28;20078;-65
2022/07/22 06:39:42;;;;;;;1999.90;999.90;;;;;;;27.06;46.49;95705.50;5063112;28;20090;-64
2022/07/22 06:42:07;;;;;;;1999.90;999.90;;;;;;;27.14;46.37;95693.41;5049619;28;20045;-67
2022/07/22 06:44:33;;;;;;;1999.90;999.90;;;;;;;27.23;46.50;95701.94;5048891;28;20028;-67
2022/07/22 06:46:58;;;;;;;1999.90;999.90;;;;;;;27.07;46.29;95671.56;5069766;28;20029;-68
2022/07/22 06:49:23;;;;;;;1999.90;999.90;;;;;;;27.32;45.74;95699.53;5070098;28;20021;-67
2022/07/22 06:51:49;;;;;;;1999.90;999.90;;;;;;;27.41;45.98;95701.84;5067005;28;20020;-67
2022/07/22 06:54:14;;;;;;;1999.90;999.90;;;;;;;27.25;46.33;95696.84;5067225;28;20035;-67
2022/07/22 06:56:39;;;;;;;1999.90;999.90;;;;;;;27.15;45.99;95689.50;5049657;28;20094;-67
2022/07/22 06:59:04;;;;;;;1999.90;999.90;;;;;;;27.05;46.28;95695.75;5049741;28;20512;-67
2022/07/22 07:01:30;;;;;;;1999.90;999.90;;;;;;;27.31;45.98;95695.25;5049141;28;20060;-67
2022/07/22 07:03:55;;;;;;;1999.90;999.90;;;;;;;27.48;45.89;95693.59;5069474;28;20046;-67
2022/07/22 07:06:20;;;;;;;1999.90;999.90;;;;;;;27.52;45.31;95677.19;5064879;28;20035;-67
2022/07/22 07:08:46;;;;;;;1999.90;999.90;;;;;;;27.19;46.15;95693.00;5066220;28;20032;-66
2022/07/22 07:11:11;;;;;;;1999.90;999.90;;;;;;;27.48;45.81;95696.31;5052687;28;20025;-65
2022/07/22 07:13:36;;;;;;;1999.90;999.90;;;;;;;27.53;45.41;95667.81;5049405;28;20107;-67
2022/07/22 07:16:02;;;;;;;1999.90;999.90;;;;;;;27.77;45.10;95674.31;5060653;28;20146;-66
2022/07/22 07:18:27;;;;;;;1999.90;999.90;;;;;;;27.99;44.21;95697.56;5069552;28;20021;-66
2022/07/22 07:20:53;;;;;;;1999.90;999.90;;;;;;;27.98;44.30;95696.00;5063769;28;20469;-66
2022/07/22 07:23:18;;;;;;;1999.90;999.90;;;;;;;27.77;43.92;95688.75;5068763;28;20025;-66
2022/07/22 07:25:43;;;;;;;1999.90;999.90;;;;;;;27.10;45.26;95693.41;5044359;28;20029;-66
2022/07/22 07:28:09;;;;;;;1999.90;999.90;;;;;;;27.82;43.79;95691.06;5048151;28;20017;-66
2022/07/22 07:30:34;;;;;;;1999.90;999.90;;;;;;;28.07;43.04;95701.78;5049474;28;20330;-66
2022/07/22 07:33:02;;;;;;;1999.90;999.90;;;;;;;28.35;42.35;95700.00;5043478;28;20518;-66
2022/07/22 07:35:28;;;;;;;1999.90;999.90;;;;;;;28.28;42.20;95687.16;5048483;28;20124;-66
2022/07/22 07:37:53;;;;;;;1999.90;999.90;;;;;;;28.18;42.11;95693.50;5069643;28;20119;-65
2022/07/22 07:40:19;;;;;;;1999.90;999.90;;;;;;;28.09;41.97;95680.28;5061767;28;20021;-66
2022/07/22 07:42:44;;;;;;;1999.90;999.90;;;;;;;28.23;42.02;95671.16;5049249;28;20074;-66
2022/07/22 07:45:10;;;;;;;1999.90;999.90;;;;;;;27.58;42.75;95678.31;5049292;28;20106;-66
2022/07/22 07:47:35;;;;;;;1999.90;999.90;;;;;;;27.95;41.65;95664.78;5049087;28;20037;-66
2022/07/22 07:50:02;;;;;;;1999.90;999.90;;;;;;;28.50;40.81;95693.97;5048358;28;20113;-67
2022/07/22 07:52:27;;;;;;;1999.90;999.90;;;;;;;28.53;40.33;95680.69;5048135;28;20471;-67
2022/07/22 07:54:55;;;;;;;1999.90;999.90;;;;;;;28.24;40.89;95687.16;5048035;28;20031;-67
2022/07/22 07:57:21;;;;;;;1999.90;999.90;;;;;;;28.64;40.15;95670.38;5049267;28;20462;-68
2022/07/22 07:59:46;;;;;;;1999.90;999.90;;;;;;;28.69;39.54;95662.50;5047733;28;20112;-66
2022/07/22 08:02:12;;;;;;;1999.90;999.90;;;;;;;28.88;39.27;95663.84;5046751;28;20025;-66
2022/07/22 08:04:37;;;;;;;1999.90;999.90;;;;;;;28.97;38.91;95683.34;5064141;28;20053;-66
2022/07/22 08:07:04;;;;;;;1999.90;999.90;;;;;;;28.69;40.10;95686.38;5067046;28;20106;-65
2022/07/22 08:09:30;;;;;;;1999.90;999.90;;;;;;;29.13;38.61;95693.69;5049376;28;20117;-66
2022/07/22 08:11:55;;;;;;;1999.90;999.90;;;;;;;29.25;38.25;95678.66;5053906;28;20469;-66
2022/07/22 08:14:20;;;;;;;1999.90;999.90;;;;;;;29.10;39.01;95675.34;5051954;28;20032;-65
2022/07/22 08:16:46;;;;;;;1999.90;999.90;;;;;;;29.14;38.49;95670.59;5052691;28;20052;-67
2022/07/22 08:19:11;;;;;;;1999.90;999.90;;;;;;;29.22;38.22;95672.03;5065912;28;20024;-66
2022/07/22 08:21:37;;;;;;;1999.90;999.90;;;;;;;29.34;37.84;95673.47;5072599;28;20028;-67
2022/07/22 08:24:02;;;;;;;1999.90;999.90;;;;;;;29.32;37.45;95653.91;5052095;28;20115;-67
2022/07/22 08:26:28;;;;;;;1999.90;999.90;;;;;;;29.72;37.51;95676.06;5049907;28;20025;-66
2022/07/22 08:28:53;;;;;;;1999.90;999.90;;;;;;;29.84;37.65;95672.75;5051928;28;20039;-67
2022/07/22 08:31:18;;;;;;;1999.90;999.90;;;;;;;30.01;36.99;95679.91;5064082;28;20032;-65
2022/07/22 08:33:44;;;;;;;1999.90;999.90;;;;;;;29.75;36.38;95658.78;5069440;28;20028;-65
2022/07/22 08:36:09;;;;;;;1999.90;999.90;;;;;;;29.78;36.60;95674.38;5072346;28;20512;-66
2022/07/22 08:38:35;;;;;;;1999.90;999.90;;;;;;;29.64;36.05;95661.69;5072411;28;20016;-66
2022/07/22 08:41:03;;;;;;;1999.90;999.90;;;;;;;29.44;36.92;95678.00;5062817;28;20469;-66
2022/07/22 08:43:30;;;;;;;1999.90;999.90;;;;;;;29.72;36.75;95679.56;5065822;28;20024;-66
2022/07/22 08:45:56;;;;;;;1999.90;999.90;;;;;;;29.68;36.58;95662.38;5072098;28;20141;-65
2022/07/22 08:48:22;;;;;;;1999.90;999.90;;;;;;;29.82;36.40;95668.84;5069403;28;20032;-65
2022/07/22 08:50:47;;;;;;;1999.90;999.90;;;;;;;29.82;36.08;95655.91;5072126;28;20029;-66
2022/07/22 08:53:13;;;;;;;1999.90;999.90;;;;;;;30.02;36.23;95661.47;5053661;28;20146;-66
2022/07/22 08:55:46;;;;;;;1999.90;999.90;;;;;;;30.16;36.17;95660.50;5048948;28;20059;-67
2022/07/22 08:58:12;;;;;;;1999.90;999.90;;;;;;;30.04;35.88;95637.13;5062881;28;20032;-66
2022/07/22 09:00:38;;;;;;;1999.90;999.90;;;;;;;30.33;35.17;95653.13;5072040;28;20058;-67
2022/07/22 09:03:23;;;;;;;1999.90;999.90;;;;;;;30.29;35.05;95626.50;5068859;28;20500;-67
2022/07/22 09:05:50;;;;;;;1999.90;999.90;;;;;;;30.13;35.38;95609.19;5072011;28;20461;-67
2022/07/22 09:08:16;;;;;;;1999.90;999.90;;;;;;;30.38;35.24;95634.19;5051044;28;20056;-66
2022/07/22 09:10:41;;;;;;;1999.90;999.90;;;;;;;30.45;34.83;95633.28;5068032;28;20090;-67
2022/07/22 09:13:10;;;;;;;1999.90;999.90;;;;;;;30.49;34.88;95642.22;5053655;28;20075;-68
2022/07/22 09:15:41;;;;;;;1999.90;999.90;;;;;;;30.04;35.20;95643.38;5071945;28;20024;-68
2022/07/22 09:18:09;;;;;;;1999.90;999.90;;;;;;;30.01;35.06;95633.25;5067999;28;20033;-67
2022/07/22 09:20:36;;;;;;;1999.90;999.90;;;;;;;30.18;34.83;95641.63;5071654;28;20024;-67
2022/07/22 09:23:08;;;;;;;1999.90;999.90;;;;;;;29.91;34.18;95611.50;5071431;28;20024;-67
2022/07/22 09:25:35;;;;;;;1999.90;999.90;;;;;;;30.22;34.61;95632.13;5048937;28;20384;-66
2022/07/22 09:28:07;;;;;;;1999.90;999.90;;;;;;;30.27;35.00;95631.66;5054156;28;20060;-67
2022/07/22 09:30:46;;;;;;;;;;;;;;;30.15;34.36;95626.00;5071853;28;20480;-67
2022/07/22 09:33:11;;;;;;;1999.90;999.90;;;;;;;29.86;34.36;95620.22;5068203;28;20003;-67
2022/07/22 09:35:38;;;;;;;1999.90;999.90;;;;;;;30.23;33.84;95611.72;5071589;28;20048;-67
2022/07/22 09:38:11;;;;;;;1999.90;999.90;;;;;;;30.23;33.00;95632.91;5071309;28;20032;-67
2022/07/22 09:40:38;;;;;;;1999.90;999.90;;;;;;;29.66;33.29;95604.47;5068569;28;20081;-67
2022/07/22 09:43:17;;;;;;;1999.90;999.90;;;;;;;30.51;33.33;95624.16;5069942;28;20032;-67
2022/07/22 09:45:53;;;;;;;1999.90;999.90;;;;;;;30.65;31.93;95616.81;5071329;28;20104;-66
2022/07/22 09:48:21;;;;;;;1999.90;999.90;;;;;;;30.79;31.78;95613.81;5064712;28;20025;-67
2022/07/22 09:50:48;;;;;;;1999.90;999.90;;;;;;;30.96;31.22;95606.41;5068140;28;20017;-67
2022/07/22 09:53:17;;;;;;;1999.90;999.90;;;;;;;30.47;33.22;95619.94;5070833;28;20483;-67
2022/07/22 09:55:43;;;;;;;1999.90;999.90;;;;;;;30.79;32.16;95613.81;5069516;28;20052;-67
2022/07/22 09:58:08;;;;;;;1999.90;999.90;;;;;;;30.53;32.04;95591.56;5050551;28;20037;-67
2022/07/22 10:00:36;;;;;;;1999.90;999.90;;;;;;;30.99;31.53;95611.03;5050922;28;20381;-68
2022/07/22 10:03:06;;;;;;;1999.90;999.90;;;;;;;30.82;32.02;95579.25;5059249;28;20013;-68
2022/07/22 10:05:35;;;;;;;1999.90;999.90;;;;;;;30.73;31.50;95594.31;5067795;28;20031;-66
2022/07/22 10:08:03;;;;;;;1999.90;999.90;;;;;;;30.92;31.78;95578.25;5049766;28;20582;-68
2022/07/22 10:10:30;;;;;;;1999.90;999.90;;;;;;;31.01;32.30;95603.16;5052439;28;20491;-67
2022/07/22 10:12:58;;;;;;;1999.90;999.90;;;;;;;31.20;32.27;95585.84;5053082;28;20029;-68
2022/07/22 10:15:25;;;;;;;1999.90;999.90;;;;;;;31.26;32.19;95592.41;5070753;28;20047;-67
2022/07/22 10:17:54;;;;;;;1999.90;999.90;;;;;;;31.33;31.68;95582.47;5067672;28;20024;-67
2022/07/22 10:20:30;;;;;;;1999.90;999.90;;;;;;;31.28;31.30;95590.00;5052151;28;20031;-66
2022/07/22 10:22:59;;;;;;;1999.90;999.90;;;;;;;31.30;32.05;95582.09;5052443;28;20123;-67
2022/07/22 10:25:27;;;;;;;1999.90;999.90;;;;;;;31.35;31.77;95578.06;5052604;28;20113;-66
2022/07/22 10:28:05;;;;;;;1999.90;999.90;;;;;;;31.08;32.22;95570.03;5060887;28;20496;-66
2022/07/22 10:30:40;;;;;;;1999.90;999.90;;;;;;;31.31;31.20;95577.38;5050874;28;20036;-67
2022/07/22 10:33:11;;;;;;;1999.90;999.90;;;;;;;31.18;31.26;95569.00;5065349;28;20089;-66
2022/07/22 10:35:52;;;;;;;1999.90;999.90;;;;;;;31.11;31.46;95560.91;5068858;28;20021;-67
2022/07/22 10:38:19;;;;;;;1999.90;999.90;;;;;;;31.20;32.24;95568.56;5063038;28;20036;-67
2022/07/22 10:40:50;;;;;;;1999.90;999.90;;;;;;;30.95;31.65;95572.66;5068536;28;20024;-69
2022/07/22 10:43:18;;;;;;;1999.90;999.90;;;;;;;30.92;31.52;95572.75;5047824;28;20025;-66
2022/07/22 10:45:52;;;;;;;1999.90;999.90;;;;;;;30.71;31.47;95543.75;5040197;28;20021;-67
2022/07/22 10:48:24;;;;;;;1999.90;999.90;;;;;;;31.11;31.29;95562.91;5054540;28;20111;-67
2022/07/22 10:50:52;;;;;;;1999.90;999.90;;;;;;;30.52;31.96;95543.34;5047194;28;20024;-67